Time;durP1;ratioP1;P1;durP2;ratioP2;P2;SDS_P1;SDS_P2;PMS_P1;PMS_P2;Temp;Humidity;BMP_temperature;BMP_pressure;BME280_temperature;BME280_humidity;BME280_pressure;Samples;Min_cycle;Max_cycle;Signal;HPM_P1;HPM_P2
2023/11/19 00:02:19;;;;;;;5.17;3.50;;;8.60;90.60;;;;;;5032627;28;20397;-70
2023/11/19 00:04:45;;;;;;;4.70;3.10;;;8.70;90.80;;;;;;5032758;28;20025;-71
2023/11/19 00:07:13;;;;;;;6.57;3.00;;;8.60;90.30;;;;;;5032824;28;20022;-70
2023/11/19 00:09:39;;;;;;;5.97;3.23;;;8.60;90.20;;;;;;5032611;28;20489;-70
2023/11/19 00:12:06;;;;;;;7.80;3.23;;;8.60;90.20;;;;;;5032347;28;20013;-70
2023/11/19 00:14:32;;;;;;;6.63;3.43;;;8.60;90.00;;;;;;5032753;28;20116;-70
2023/11/19 00:16:58;;;;;;;7.63;3.23;;;8.60;89.80;;;;;;5032368;28;20159;-70
2023/11/19 00:19:24;;;;;;;5.37;3.20;;;8.60;90.00;;;;;;5032226;28;20105;-70
2023/11/19 00:21:50;;;;;;;5.77;3.73;;;8.60;89.90;;;;;;5031287;28;20026;-70
2023/11/19 00:24:16;;;;;;;7.20;3.77;;;8.60;90.00;;;;;;5032433;28;20045;-71
2023/11/19 00:26:43;;;;;;;5.87;3.13;;;8.60;90.00;;;;;;5032497;28;20028;-71
2023/11/19 00:29:08;;;;;;;9.10;3.20;;;8.60;90.00;;;;;;5032880;28;20374;-70
2023/11/19 00:31:34;;;;;;;5.53;3.00;;;8.60;89.80;;;;;;5032317;28;20028;-71
2023/11/19 00:34:01;;;;;;;7.80;2.70;;;8.70;89.70;;;;;;5032453;28;20422;-71
2023/11/19 00:36:28;;;;;;;5.73;2.80;;;8.70;89.30;;;;;;5032474;28;20156;-71
2023/11/19 00:38:54;;;;;;;5.27;3.07;;;8.60;88.70;;;;;;5032175;28;20033;-71
2023/11/19 00:41:20;;;;;;;5.43;2.97;;;8.70;88.50;;;;;;5032413;28;20545;-70
2023/11/19 00:43:45;;;;;;;8.83;3.80;;;8.60;88.20;;;;;;5032684;28;20033;-71
2023/11/19 00:46:11;;;;;;;5.63;3.27;;;8.60;89.00;;;;;;5032426;28;20075;-70
2023/11/19 00:48:37;;;;;;;6.73;2.60;;;8.60;89.20;;;;;;5032423;28;20033;-70
2023/11/19 00:51:04;;;;;;;4.60;2.80;;;8.60;89.00;;;;;;5031097;28;20076;-70
2023/11/19 00:53:30;;;;;;;5.70;2.80;;;8.60;89.60;;;;;;5032288;28;20022;-71
2023/11/19 00:55:56;;;;;;;5.43;2.83;;;8.60;89.00;;;;;;5032494;28;20030;-71
2023/11/19 00:58:22;;;;;;;5.53;3.40;;;8.60;88.90;;;;;;5032382;28;20109;-70
2023/11/19 01:00:48;;;;;;;3.97;2.67;;;8.60;89.30;;;;;;5032536;28;20429;-70
2023/11/19 01:03:15;;;;;;;5.00;2.80;;;8.60;88.80;;;;;;5032673;28;20076;-70
2023/11/19 01:05:42;;;;;;;5.63;3.07;;;8.50;88.90;;;;;;5031340;28;20405;-70
2023/11/19 01:08:09;;;;;;;4.43;2.83;;;8.50;89.20;;;;;;5032483;28;20037;-70
2023/11/19 01:10:37;;;;;;;4.97;2.97;;;8.50;89.30;;;;;;5032381;28;20021;-71
2023/11/19 01:13:05;;;;;;;4.70;2.83;;;8.50;89.80;;;;;;5032154;28;20053;-70
2023/11/19 01:15:31;;;;;;;4.03;2.80;;;8.50;89.80;;;;;;5032140;28;20092;-70
2023/11/19 01:17:57;;;;;;;6.27;2.80;;;8.50;89.90;;;;;;5032085;28;20022;-70
2023/11/19 01:20:23;;;;;;;5.33;2.50;;;8.50;89.90;;;;;;5032283;28;20159;-70
2023/11/19 01:22:49;;;;;;;7.30;3.97;;;8.40;89.60;;;;;;5032423;28;20466;-70
2023/11/19 01:25:15;;;;;;;6.53;4.53;;;8.40;89.60;;;;;;5032005;28;20021;-70
2023/11/19 01:27:41;;;;;;;7.57;4.73;;;8.40;89.40;;;;;;5032017;28;20026;-70
2023/11/19 01:30:10;;;;;;;9.00;5.00;;;8.50;89.60;;;;;;5031987;28;20097;-70
2023/11/19 01:32:36;;;;;;;7.43;4.83;;;8.40;89.90;;;;;;5030945;28;20454;-70
2023/11/19 01:35:04;;;;;;;9.20;5.27;;;8.30;90.30;;;;;;5032093;28;20116;-70
2023/11/19 01:37:31;;;;;;;9.73;5.20;;;8.30;90.60;;;;;;5032093;28;20025;-70
2023/11/19 01:39:57;;;;;;;7.47;5.20;;;8.20;90.90;;;;;;5032442;28;20025;-70
2023/11/19 01:42:25;;;;;;;8.63;5.37;;;8.10;91.20;;;;;;5032112;28;20060;-70
2023/11/19 01:45:01;;;;;;;7.63;4.80;;;8.10;91.40;;;;;;5031930;28;20112;-70
2023/11/19 01:47:30;;;;;;;6.93;4.90;;;8.10;91.60;;;;;;5031992;28;20083;-70
2023/11/19 01:49:57;;;;;;;10.13;4.73;;;8.00;91.70;;;;;;5032081;28;20028;-70
2023/11/19 01:52:24;;;;;;;7.93;5.20;;;8.00;91.90;;;;;;5032011;28;20096;-70
2023/11/19 01:54:52;;;;;;;10.17;5.33;;;8.00;92.00;;;;;;5031854;28;20030;-70
2023/11/19 01:57:18;;;;;;;7.97;4.80;;;8.00;92.00;;;;;;5032381;28;20100;-70
2023/11/19 01:59:44;;;;;;;7.00;4.53;;;7.90;91.90;;;;;;5032234;28;20025;-70
2023/11/19 02:02:10;;;;;;;8.30;4.30;;;7.90;91.90;;;;;;5032732;28;20036;-70
2023/11/19 02:04:36;;;;;;;6.80;4.30;;;7.90;92.00;;;;;;5033485;28;20100;-71
2023/11/19 02:07:02;;;;;;;6.70;3.73;;;7.90;92.10;;;;;;5033551;28;20021;-70
2023/11/19 02:09:28;;;;;;;5.47;3.37;;;7.80;92.20;;;;;;5035295;28;20033;-70
2023/11/19 02:11:54;;;;;;;4.77;2.83;;;7.80;92.10;;;;;;5035070;28;20105;-70
2023/11/19 02:14:25;;;;;;;5.97;2.80;;;7.90;92.10;;;;;;5034670;28;20084;-70
2023/11/19 02:16:51;;;;;;;5.30;2.70;;;7.80;91.90;;;;;;5035039;28;20542;-70
2023/11/19 02:19:20;;;;;;;6.33;2.97;;;7.80;91.90;;;;;;5035154;28;20029;-70
2023/11/19 02:21:46;;;;;;;4.60;2.60;;;7.80;91.70;;;;;;5034798;28;20378;-70
2023/11/19 02:24:14;;;;;;;6.70;2.70;;;7.80;91.80;;;;;;5035151;28;20033;-70
2023/11/19 02:26:45;;;;;;;6.17;3.20;;;7.90;91.80;;;;;;5033685;28;20040;-70
2023/11/19 02:29:13;;;;;;;7.23;3.70;;;7.90;91.30;;;;;;5034572;28;20036;-70
2023/11/19 02:31:38;;;;;;;10.07;3.67;;;7.90;91.10;;;;;;5034277;28;20025;-70
2023/11/19 02:34:05;;;;;;;5.97;3.57;;;7.90;91.50;;;;;;5034690;28;20044;-70
2023/11/19 02:36:32;;;;;;;7.20;3.77;;;7.80;91.60;;;;;;5034484;28;20555;-70
2023/11/19 02:38:58;;;;;;;8.13;4.37;;;7.80;92.00;;;;;;5034484;28;20021;-70
2023/11/19 02:41:24;;;;;;;7.37;3.63;;;7.70;91.90;;;;;;5034662;28;20025;-70
2023/11/19 02:43:49;;;;;;;7.93;3.97;;;7.70;91.90;;;;;;5034289;28;20022;-70
2023/11/19 02:46:17;;;;;;;7.40;3.83;;;7.70;92.00;;;;;;5034454;28;20026;-70
2023/11/19 02:48:44;;;;;;;9.07;4.27;;;7.70;92.00;;;;;;5034336;28;20020;-70
2023/11/19 02:51:10;;;;;;;7.70;4.17;;;7.70;92.00;;;;;;5034393;28;20076;-71
2023/11/19 02:53:39;;;;;;;6.87;4.30;;;7.60;92.10;;;;;;5034171;28;20053;-70
2023/11/19 02:56:12;;;;;;;7.77;4.17;;;7.60;92.20;;;;;;5034394;28;20095;-70
2023/11/19 02:58:39;;;;;;;11.20;4.75;;;7.60;92.40;;;;;;5034688;28;20040;-70
2023/11/19 03:01:12;;;;;;;6.40;3.87;;;7.50;92.60;;;;;;5034328;28;20029;-70
2023/11/19 03:03:40;;;;;;;8.97;4.20;;;7.50;92.60;;;;;;5034593;28;20417;-70
2023/11/19 03:06:06;;;;;;;5.03;3.60;;;7.50;92.80;;;;;;5034104;28;20373;-70
2023/11/19 03:08:35;;;;;;;6.57;3.77;;;7.50;92.80;;;;;;5034138;28;20021;-70
2023/11/19 03:11:02;;;;;;;7.93;4.37;;;7.40;92.80;;;;;;5033878;28;20040;-70
2023/11/19 03:13:27;;;;;;;6.27;4.10;;;7.40;92.90;;;;;;5034238;28;20045;-70
2023/11/19 03:15:56;;;;;;;8.47;4.00;;;7.40;92.90;;;;;;5034124;28;20029;-71
2023/11/19 03:18:21;;;;;;;5.23;3.63;;;7.40;93.00;;;;;;5034256;28;20032;-71
2023/11/19 03:20:47;;;;;;;6.27;3.97;;;7.40;93.10;;;;;;5034111;28;20021;-71
2023/11/19 03:23:13;;;;;;;10.20;3.63;;;7.40;93.10;;;;;;5034046;28;20071;-71
2023/11/19 03:25:39;;;;;;;6.77;4.03;;;7.40;93.30;;;;;;5034022;28;20485;-70
2023/11/19 03:28:05;;;;;;;8.53;4.00;;;7.40;93.30;;;;;;5033514;28;20160;-71
2023/11/19 03:30:31;;;;;;;5.77;3.80;;;7.30;93.30;;;;;;5033810;28;20033;-70
2023/11/19 03:32:57;;;;;;;7.47;4.57;;;7.30;93.20;;;;;;5033583;28;20026;-71
2023/11/19 03:35:24;;;;;;;5.90;3.73;;;7.30;93.20;;;;;;5033640;28;20049;-71
2023/11/19 03:37:50;;;;;;;6.53;4.00;;;7.30;93.40;;;;;;5033800;28;20032;-71
2023/11/19 03:40:18;;;;;;;7.90;4.00;;;7.30;93.30;;;;;;5033516;28;20032;-71
2023/11/19 03:42:48;;;;;;;6.00;3.83;;;7.20;93.30;;;;;;5032195;28;20025;-71
2023/11/19 03:45:15;;;;;;;6.70;4.17;;;7.20;93.40;;;;;;5033659;28;20026;-71
2023/11/19 03:47:41;;;;;;;7.10;3.93;;;7.20;93.50;;;;;;5033658;28;20092;-71
2023/11/19 03:50:08;;;;;;;8.07;3.93;;;7.20;93.40;;;;;;5033487;28;20441;-71
2023/11/19 03:52:35;;;;;;;9.07;4.13;;;7.20;93.40;;;;;;5033455;28;20052;-71
2023/11/19 03:55:01;;;;;;;8.83;3.70;;;7.10;93.70;;;;;;5032885;28;20129;-71
2023/11/19 03:57:27;;;;;;;6.93;4.23;;;7.10;93.80;;;;;;5033357;28;20096;-71
2023/11/19 03:59:55;;;;;;;7.63;3.80;;;7.10;94.00;;;;;;5033253;28;20021;-71
2023/11/19 04:02:21;;;;;;;7.57;3.90;;;7.10;93.90;;;;;;5033361;28;20021;-71
2023/11/19 04:04:48;;;;;;;7.20;4.20;;;7.00;94.00;;;;;;5033380;28;20486;-71
2023/11/19 04:07:13;;;;;;;6.37;3.60;;;7.10;94.10;;;;;;5033001;28;20108;-71
2023/11/19 04:09:39;;;;;;;8.07;4.20;;;7.10;94.10;;;;;;5032842;28;20104;-71
2023/11/19 04:12:05;;;;;;;5.53;3.40;;;7.10;94.20;;;;;;5032857;28;20029;-71
2023/11/19 04:14:31;;;;;;;6.83;4.30;;;7.00;94.40;;;;;;5033136;28;20033;-71
2023/11/19 04:16:57;;;;;;;6.03;3.83;;;7.00;94.60;;;;;;5033000;28;20093;-70
2023/11/19 04:19:23;;;;;;;10.53;3.63;;;7.00;94.70;;;;;;5032900;28;20540;-71
2023/11/19 04:21:48;;;;;;;8.80;3.77;;;7.00;94.70;;;;;;5032540;28;20021;-70
2023/11/19 04:24:15;;;;;;;8.57;3.53;;;7.00;94.70;;;;;;5032666;28;20056;-71
2023/11/19 04:26:44;;;;;;;5.77;3.50;;;7.00;94.70;;;;;;5032320;28;20029;-71
2023/11/19 04:29:17;;;;;;;6.40;3.70;;;7.00;94.80;;;;;;5030074;28;20025;-71
2023/11/19 04:31:46;;;;;;;7.90;3.40;;;7.10;94.80;;;;;;5031596;28;20079;-71
2023/11/19 04:34:12;;;;;;;8.93;3.30;;;7.10;95.10;;;;;;5032552;28;20035;-71
2023/11/19 04:36:38;;;;;;;5.47;3.33;;;7.10;95.20;;;;;;5032553;28;20034;-71
2023/11/19 04:39:09;;;;;;;6.67;3.57;;;7.10;95.20;;;;;;5032376;28;20025;-71
2023/11/19 04:41:48;;;;;;;5.63;3.47;;;7.10;95.10;;;;;;5032784;28;20370;-71
2023/11/19 04:44:17;;;;;;;7.20;3.47;;;7.10;95.20;;;;;;5032526;28;20065;-71
2023/11/19 04:46:44;;;;;;;8.73;3.90;;;7.10;95.20;;;;;;5032752;28;20021;-71
2023/11/19 04:49:13;;;;;;;5.90;3.63;;;7.10;95.10;;;;;;5032459;28;20429;-71
2023/11/19 04:51:42;;;;;;;7.17;4.13;;;7.10;95.20;;;;;;5032654;28;20429;-70
2023/11/19 04:54:09;;;;;;;6.87;4.20;;;7.10;95.30;;;;;;5032675;28;20033;-70
2023/11/19 04:56:37;;;;;;;5.67;3.43;;;7.10;95.30;;;;;;5032714;28;20465;-71
2023/11/19 04:59:03;;;;;;;8.27;4.23;;;7.20;95.20;;;;;;5032402;28;20057;-71
2023/11/19 05:01:29;;;;;;;6.47;4.30;;;7.10;95.10;;;;;;5032334;28;20477;-71
2023/11/19 05:03:59;;;;;;;6.30;3.63;;;7.10;94.90;;;;;;5031394;28;20036;-71
2023/11/19 05:06:27;;;;;;;4.77;3.57;;;7.10;94.90;;;;;;5032401;28;20026;-70
2023/11/19 05:08:53;;;;;;;8.53;5.17;;;7.10;95.00;;;;;;5031418;28;20125;-70
2023/11/19 05:11:20;;;;;;;8.73;5.67;;;7.10;95.00;;;;;;5032384;28;20095;-71
2023/11/19 05:13:46;;;;;;;9.87;6.67;;;7.00;95.00;;;;;;5032060;28;20038;-71
2023/11/19 05:16:15;;;;;;;9.93;6.43;;;7.10;95.20;;;;;;5032481;28;20036;-70
2023/11/19 05:18:41;;;;;;;9.07;5.50;;;7.00;95.30;;;;;;5031918;28;20017;-70
2023/11/19 05:21:07;;;;;;;9.57;6.30;;;7.00;95.30;;;;;;5032377;28;20381;-70
2023/11/19 05:23:36;;;;;;;8.37;5.53;;;7.00;95.40;;;;;;5032563;28;20053;-71
2023/11/19 05:26:02;;;;;;;8.77;5.40;;;7.10;95.50;;;;;;5032546;28;20418;-71
2023/11/19 05:28:28;;;;;;;11.90;4.93;;;7.10;95.60;;;;;;5031661;28;20083;-71
2023/11/19 05:30:55;;;;;;;8.63;4.57;;;7.10;95.90;;;;;;5032024;28;20117;-71
2023/11/19 05:33:21;;;;;;;6.33;3.87;;;7.00;96.20;;;;;;5034530;28;20030;-71
2023/11/19 05:35:47;;;;;;;5.63;3.17;;;7.10;96.30;;;;;;5035994;28;20370;-71
2023/11/19 05:38:13;;;;;;;6.00;3.10;;;7.10;96.30;;;;;;5036025;28;20488;-71
2023/11/19 05:40:39;;;;;;;6.27;3.20;;;7.10;96.30;;;;;;5035922;28;20377;-71
2023/11/19 05:43:05;;;;;;;5.57;3.10;;;7.10;96.50;;;;;;5036076;28;20040;-71
2023/11/19 05:45:32;;;;;;;4.47;2.97;;;7.10;96.40;;;;;;5035758;28;20029;-71
2023/11/19 05:47:57;;;;;;;5.80;3.23;;;7.20;96.40;;;;;;5035889;28;20112;-71
2023/11/19 05:50:23;;;;;;;7.07;3.20;;;7.10;96.30;;;;;;5035892;28;20485;-71
2023/11/19 05:52:49;;;;;;;6.63;3.53;;;7.20;96.40;;;;;;5034692;28;20032;-71
2023/11/19 05:55:15;;;;;;;6.30;3.50;;;7.20;96.40;;;;;;5035711;28;20470;-71
2023/11/19 05:57:41;;;;;;;6.70;3.27;;;7.20;96.40;;;;;;5035645;28;20022;-71
2023/11/19 06:00:08;;;;;;;5.07;2.60;;;7.20;96.40;;;;;;5034841;28;20450;-70
2023/11/19 06:02:34;;;;;;;4.23;2.87;;;7.20;96.40;;;;;;5035739;28;20036;-71
2023/11/19 06:05:01;;;;;;;4.63;2.60;;;7.20;96.60;;;;;;5035525;28;20057;-71
2023/11/19 06:07:27;;;;;;;4.63;3.00;;;7.20;96.20;;;;;;5035448;28;20099;-70
2023/11/19 06:09:53;;;;;;;4.20;2.53;;;7.20;96.00;;;;;;5035300;28;20017;-71
2023/11/19 06:12:19;;;;;;;4.83;2.97;;;7.20;96.00;;;;;;5035364;28;20046;-71
2023/11/19 06:14:45;;;;;;;5.73;3.03;;;7.20;96.00;;;;;;5035279;28;20413;-70
2023/11/19 06:17:11;;;;;;;7.33;2.63;;;7.20;95.90;;;;;;5035451;28;20433;-70
2023/11/19 06:19:40;;;;;;;8.17;3.47;;;7.20;95.80;;;;;;5034331;28;20033;-70
2023/11/19 06:22:06;;;;;;;5.63;2.93;;;7.20;95.60;;;;;;5035062;28;20470;-70
2023/11/19 06:24:32;;;;;;;6.50;3.50;;;7.30;95.60;;;;;;5034532;28;20120;-70
2023/11/19 06:26:58;;;;;;;6.37;3.17;;;7.30;95.70;;;;;;5035223;28;20060;-70
2023/11/19 06:29:24;;;;;;;5.00;3.03;;;7.30;95.70;;;;;;5034855;28;20034;-71
2023/11/19 06:31:50;;;;;;;6.90;3.67;;;7.30;95.50;;;;;;5034876;28;20033;-70
2023/11/19 06:34:16;;;;;;;10.37;3.93;;;7.30;95.40;;;;;;5034777;28;20041;-69
2023/11/19 06:36:44;;;;;;;5.27;3.20;;;7.30;95.60;;;;;;5033421;28;20029;-71
2023/11/19 06:39:13;;;;;;;5.47;3.27;;;7.30;95.80;;;;;;5034924;28;20052;-70
2023/11/19 06:41:39;;;;;;;7.13;3.20;;;7.40;96.00;;;;;;5033000;28;20029;-69
2023/11/19 06:44:05;;;;;;;5.73;3.57;;;7.40;96.20;;;;;;5029857;28;20079;-70
2023/11/19 06:46:31;;;;;;;7.33;3.47;;;7.40;96.20;;;;;;5031583;28;20034;-71
2023/11/19 06:48:57;;;;;;;7.53;3.47;;;7.40;96.30;;;;;;5030557;28;20037;-71
2023/11/19 06:51:24;;;;;;;4.27;2.83;;;7.40;96.30;;;;;;5033856;28;20473;-70
2023/11/19 06:53:50;;;;;;;6.13;3.10;;;7.40;96.30;;;;;;5034118;28;20111;-71
2023/11/19 06:56:21;;;;;;;5.47;3.23;;;7.40;96.40;;;;;;5033970;28;20537;-71
2023/11/19 06:58:48;;;;;;;7.80;3.30;;;7.40;96.70;;;;;;5033894;28;20049;-70
2023/11/19 07:01:15;;;;;;;5.77;3.20;;;7.40;96.90;;;;;;5034516;28;20017;-70
2023/11/19 07:03:41;;;;;;;4.30;3.00;;;7.40;96.80;;;;;;5034382;28;20033;-70
2023/11/19 07:06:06;;;;;;;6.20;3.10;;;7.30;96.80;;;;;;5034333;28;20492;-70
2023/11/19 07:08:32;;;;;;;5.60;3.80;;;7.30;97.20;;;;;;5034164;28;20362;-70
2023/11/19 07:10:58;;;;;;;5.77;3.70;;;7.30;97.50;;;;;;5032636;28;20033;-71
2023/11/19 07:13:24;;;;;;;10.17;3.50;;;7.30;97.70;;;;;;5033867;28;20073;-70
2023/11/19 07:15:49;;;;;;;8.53;3.20;;;7.30;97.70;;;;;;5033917;28;20068;-70
2023/11/19 07:18:15;;;;;;;5.20;3.30;;;7.30;97.70;;;;;;5033098;28;20079;-70
2023/11/19 07:20:41;;;;;;;5.90;3.70;;;7.40;97.70;;;;;;5031830;28;20091;-70
2023/11/19 07:23:08;;;;;;;9.40;3.30;;;7.40;97.70;;;;;;5030287;28;20292;-70
2023/11/19 07:25:35;;;;;;;7.50;3.87;;;7.40;97.70;;;;;;5030637;28;20021;-71
2023/11/19 07:28:04;;;;;;;6.03;4.17;;;7.40;97.70;;;;;;5031099;28;20029;-71
2023/11/19 07:30:30;;;;;;;5.90;4.03;;;7.40;97.80;;;;;;5032516;28;20037;-70
2023/11/19 07:32:56;;;;;;;7.20;4.57;;;7.40;97.80;;;;;;5032964;28;20044;-70
2023/11/19 07:35:21;;;;;;;8.40;4.70;;;7.40;98.00;;;;;;5032744;28;20045;-70
2023/11/19 07:37:49;;;;;;;7.27;4.50;;;7.50;98.20;;;;;;5033197;28;20036;-71
2023/11/19 07:40:14;;;;;;;8.90;4.30;;;7.50;98.30;;;;;;5032865;28;20025;-70
2023/11/19 07:42:41;;;;;;;9.77;4.97;;;7.50;98.50;;;;;;5033641;28;20357;-71
2023/11/19 07:45:07;;;;;;;8.70;4.90;;;7.50;98.50;;;;;;5033395;28;20049;-70
2023/11/19 07:47:32;;;;;;;16.47;5.90;;;7.50;98.80;;;;;;5032330;28;20022;-71
2023/11/19 07:49:58;;;;;;;9.13;6.50;;;7.50;98.60;;;;;;5033332;28;20025;-71
2023/11/19 07:52:24;;;;;;;14.30;7.97;;;7.50;98.70;;;;;;5032839;28;20040;-71
2023/11/19 07:54:49;;;;;;;10.63;7.30;;;7.50;98.90;;;;;;5031206;28;20037;-71
2023/11/19 07:57:15;;;;;;;13.97;8.60;;;7.50;99.10;;;;;;5032403;28;20450;-69
2023/11/19 07:59:41;;;;;;;14.37;9.10;;;7.50;99.20;;;;;;5032195;28;20079;-70
2023/11/19 08:02:07;;;;;;;16.33;8.57;;;7.50;99.10;;;;;;5031353;28;20068;-70
2023/11/19 08:04:33;;;;;;;11.53;7.13;;;7.50;99.20;;;;;;5032635;28;20055;-70
2023/11/19 08:06:59;;;;;;;11.17;6.60;;;7.60;99.60;;;;;;5032026;28;20026;-70
2023/11/19 08:09:24;;;;;;;8.60;6.00;;;7.50;99.50;;;;;;5033345;28;20037;-70
2023/11/19 08:11:51;;;;;;;7.67;4.87;;;7.60;99.60;;;;;;5033510;28;20021;-70
2023/11/19 08:14:16;;;;;;;6.63;4.30;;;7.60;99.50;;;;;;5032980;28;20042;-70
2023/11/19 08:16:42;;;;;;;9.00;4.83;;;7.70;99.50;;;;;;5031322;28;20062;-70
2023/11/19 08:19:08;;;;;;;7.17;4.10;;;7.70;99.50;;;;;;5031090;28;20021;-70
2023/11/19 08:21:34;;;;;;;7.00;3.53;;;7.70;99.40;;;;;;5031262;28;20565;-70
2023/11/19 08:24:00;;;;;;;6.00;3.50;;;7.70;99.30;;;;;;5031078;28;20026;-70
2023/11/19 08:26:25;;;;;;;5.80;3.80;;;7.70;99.30;;;;;;5029861;28;20095;-71
2023/11/19 08:28:52;;;;;;;16.03;9.40;;;7.80;99.20;;;;;;5030918;28;20022;-70
2023/11/19 08:31:17;;;;;;;17.37;9.50;;;7.80;99.00;;;;;;5031124;28;20021;-71
2023/11/19 08:33:43;;;;;;;15.47;10.33;;;7.80;99.00;;;;;;5032939;28;20035;-70
2023/11/19 08:36:15;;;;;;;18.03;10.10;;;7.80;99.10;;;;;;5032949;28;20068;-70
2023/11/19 08:38:40;;;;;;;14.67;9.83;;;7.90;99.40;;;;;;5033039;28;20393;-70
2023/11/19 08:41:06;;;;;;;18.10;11.83;;;8.00;99.30;;;;;;5032940;28;20018;-71
2023/11/19 08:43:32;;;;;;;24.27;14.47;;;8.00;99.50;;;;;;5032896;28;20032;-70
2023/11/19 08:45:57;;;;;;;28.97;16.17;;;8.00;99.60;;;;;;5032982;28;20014;-70
2023/11/19 08:48:23;;;;;;;18.73;12.07;;;8.00;99.70;;;;;;5032749;28;20029;-70
2023/11/19 08:50:49;;;;;;;17.90;8.63;;;8.10;99.80;;;;;;5032718;28;20028;-70
2023/11/19 08:53:15;;;;;;;12.23;7.90;;;8.10;99.90;;;;;;5031136;28;20049;-70
2023/11/19 08:55:41;;;;;;;13.67;7.00;;;8.10;99.90;;;;;;5032516;28;20080;-70
2023/11/19 08:58:07;;;;;;;10.83;6.83;;;8.20;99.80;;;;;;5032607;28;20029;-70
2023/11/19 09:00:32;;;;;;;9.83;5.50;;;8.20;99.80;;;;;;5032703;28;20026;-70
2023/11/19 09:02:59;;;;;;;8.97;5.40;;;8.30;99.90;;;;;;5032785;28;20013;-71
2023/11/19 09:05:24;;;;;;;8.50;5.07;;;8.30;99.90;;;;;;5032483;28;20021;-70
2023/11/19 09:07:50;;;;;;;7.63;5.03;;;8.30;99.80;;;;;;5035803;28;20025;-70
2023/11/19 09:10:16;;;;;;;15.77;5.77;;;8.40;99.70;;;;;;5036943;28;20052;-71
2023/11/19 09:12:42;;;;;;;6.97;4.80;;;8.40;99.90;;;;;;5036522;28;20042;-70
2023/11/19 09:15:10;;;;;;;8.83;5.13;;;8.50;99.60;;;;;;5036483;28;20033;-71
2023/11/19 09:17:36;;;;;;;7.60;4.60;;;8.40;99.40;;;;;;5035178;28;20524;-71
2023/11/19 09:20:02;;;;;;;8.90;5.43;;;8.50;99.10;;;;;;5036385;28;20025;-70
2023/11/19 09:22:28;;;;;;;7.83;4.53;;;8.60;99.00;;;;;;5036323;28;20030;-70
2023/11/19 09:24:53;;;;;;;7.27;4.50;;;8.60;98.90;;;;;;5036414;28;20029;-70
2023/11/19 09:27:20;;;;;;;10.50;4.83;;;8.60;98.80;;;;;;5036392;28;20036;-70
2023/11/19 09:29:48;;;;;;;10.23;5.40;;;8.70;98.90;;;;;;5036291;28;20045;-70
2023/11/19 09:32:14;;;;;;;10.67;6.00;;;8.70;99.00;;;;;;5036487;28;20021;-71
2023/11/19 09:34:39;;;;;;;9.90;5.87;;;8.80;99.00;;;;;;5033016;28;20041;-70
2023/11/19 09:37:05;;;;;;;8.33;6.13;;;8.80;99.00;;;;;;5033546;28;20029;-71
2023/11/19 09:39:31;;;;;;;9.47;6.77;;;8.80;99.30;;;;;;5035645;28;20053;-70
2023/11/19 09:41:57;;;;;;;9.20;5.93;;;8.80;99.20;;;;;;5035992;28;20024;-71
2023/11/19 09:44:24;;;;;;;10.20;5.13;;;8.90;99.20;;;;;;5036082;28;20083;-71
2023/11/19 09:46:49;;;;;;;8.20;4.97;;;8.90;99.20;;;;;;5035845;28;20030;-70
2023/11/19 09:49:21;;;;;;;12.87;6.17;;;8.90;99.30;;;;;;5035807;28;20108;-70
2023/11/19 09:51:46;;;;;;;9.23;5.80;;;8.90;99.20;;;;;;5035820;28;20101;-71
2023/11/19 09:54:12;;;;;;;8.67;5.47;;;8.90;99.20;;;;;;5036029;28;20037;-70
2023/11/19 09:56:39;;;;;;;7.93;5.10;;;9.00;99.20;;;;;;5035970;28;20117;-71
2023/11/19 09:59:05;;;;;;;14.27;5.20;;;9.00;99.30;;;;;;5033270;28;20033;-71
2023/11/19 10:01:31;;;;;;;7.43;4.70;;;9.00;99.70;;;;;;5032961;28;20041;-71
2023/11/19 10:03:58;;;;;;;6.17;3.83;;;9.10;99.60;;;;;;5033044;28;20025;-71
2023/11/19 10:06:26;;;;;;;7.03;3.90;;;9.10;99.40;;;;;;5035324;28;20025;-70
2023/11/19 10:08:53;;;;;;;8.83;3.83;;;9.10;99.30;;;;;;5035398;28;20029;-70
2023/11/19 10:11:18;;;;;;;6.67;3.77;;;9.20;99.10;;;;;;5035412;28;20036;-70
2023/11/19 10:13:47;;;;;;;9.40;4.27;;;9.20;98.90;;;;;;5026613;22;20505;-70
2023/11/19 10:16:13;;;;;;;7.10;3.90;;;9.30;98.70;;;;;;5014541;28;20116;-70
2023/11/19 10:18:46;;;;;;;8.60;3.83;;;9.40;98.60;;;;;;5014449;28;20549;-71
2023/11/19 10:21:16;;;;;;;6.37;3.90;;;9.40;98.50;;;;;;5015317;28;20022;-70
2023/11/19 10:23:51;;;;;;;7.83;3.97;;;9.50;98.30;;;;;;5015574;28;20029;-70
2023/11/19 10:26:17;;;;;;;9.73;3.90;;;9.50;98.20;;;;;;5015552;28;20116;-70
2023/11/19 10:28:45;;;;;;;8.57;4.00;;;9.60;98.10;;;;;;5014823;28;20109;-70
2023/11/19 10:31:13;;;;;;;6.53;4.17;;;9.60;98.20;;;;;;5014778;28;20067;-70
2023/11/19 10:33:38;;;;;;;8.03;4.13;;;9.60;98.30;;;;;;5015397;28;20026;-70
2023/11/19 10:36:04;;;;;;;8.33;4.27;;;9.60;98.30;;;;;;5013692;28;20037;-70
2023/11/19 10:38:30;;;;;;;13.03;4.40;;;9.70;98.20;;;;;;5013414;28;20363;-70
2023/11/19 10:40:56;;;;;;;8.50;4.97;;;9.70;98.10;;;;;;5012522;28;20032;-70
2023/11/19 10:43:23;;;;;;;7.17;5.07;;;9.80;98.20;;;;;;5012390;28;20026;-70
2023/11/19 10:45:49;;;;;;;10.27;5.23;;;9.80;98.20;;;;;;5013353;28;20117;-70
2023/11/19 10:48:15;;;;;;;9.30;5.33;;;9.90;98.30;;;;;;5013907;28;20081;-70
2023/11/19 10:50:43;;;;;;;8.27;4.80;;;9.90;98.30;;;;;;5015025;28;20417;-70
2023/11/19 10:53:13;;;;;;;8.63;4.83;;;9.90;98.40;;;;;;5014629;28;20441;-70
2023/11/19 10:55:39;;;;;;;12.63;4.57;;;9.90;98.30;;;;;;5014864;28;20112;-71
2023/11/19 10:58:09;;;;;;;6.47;4.73;;;10.00;98.50;;;;;;5014876;28;20113;-71
2023/11/19 11:00:50;;;;;;;9.03;5.17;;;10.00;98.90;;;;;;5014449;28;20037;-71
2023/11/19 11:03:24;;;;;;;10.17;4.87;;;10.00;99.00;;;;;;5014881;28;20025;-71
2023/11/19 11:05:52;;;;;;;7.03;4.93;;;10.00;99.10;;;;;;5013478;28;20022;-71
2023/11/19 11:08:19;;;;;;;11.27;4.90;;;10.10;99.10;;;;;;5014313;28;20530;-71
2023/11/19 11:10:52;;;;;;;11.23;5.33;;;10.10;99.10;;;;;;5013354;28;20084;-70
2023/11/19 11:13:18;;;;;;;;;;;10.20;99.10;;;;;;5014705;28;20057;-71
2023/11/19 11:15:46;;;;;;;6.53;4.43;;;10.40;98.90;;;;;;5014036;28;19913;-71
2023/11/19 11:18:13;;;;;;;7.40;5.07;;;10.40;98.70;;;;;;5014477;28;20025;-70
2023/11/19 11:20:39;;;;;;;14.27;5.33;;;10.50;98.50;;;;;;5014513;28;20110;-71
2023/11/19 11:23:43;;;;;;;7.60;5.27;;;10.60;98.20;;;;;;5014058;28;20104;-71
2023/11/19 11:26:23;;;;;;;11.00;5.53;;;10.70;98.10;;;;;;5014344;28;20470;-70
2023/11/19 11:29:16;;;;;;;10.83;5.97;;;10.80;98.00;;;;;;5014347;28;20022;-71
2023/11/19 11:32:13;;;;;;;9.13;5.25;;;10.90;98.10;;;;;;5014332;28;20022;-70
2023/11/19 11:35:04;;;;;;;7.97;5.10;;;11.00;98.10;;;;;;5014137;28;20065;-70
2023/11/19 11:37:49;;;;;;;10.85;5.95;;;11.10;98.00;;;;;;5012776;28;20026;-71
2023/11/19 11:40:16;;;;;;;7.65;5.57;;;11.10;97.90;;;;;;5014253;28;20022;-71
2023/11/19 11:42:42;;;;;;;13.10;6.07;;;11.20;97.80;;;;;;5014197;28;20034;-71
2023/11/19 11:45:09;;;;;;;9.77;6.13;;;11.30;97.90;;;;;;5014162;28;20022;-70
2023/11/19 11:47:47;;;;;;;11.73;5.68;;;11.40;97.90;;;;;;5014015;28;20052;-70
2023/11/19 11:50:14;;;;;;;13.57;6.50;;;11.50;98.00;;;;;;5013867;28;20466;-70
2023/11/19 11:52:58;;;;;;;11.85;5.63;;;11.50;97.90;;;;;;5013684;28;20041;-70
2023/11/19 11:55:49;;;;;;;11.60;6.93;;;11.60;98.00;;;;;;5013754;28;20490;-71
2023/11/19 11:58:18;;;;;;;11.52;7.00;;;11.70;98.00;;;;;;5012223;28;20029;-71
2023/11/19 12:00:45;;;;;;;9.38;6.82;;;11.80;98.20;;;;;;5010858;28;20537;-71
2023/11/19 12:03:11;;;;;;;13.32;7.22;;;11.90;98.40;;;;;;5011760;28;20026;-71
2023/11/19 12:05:45;;;;;;;10.48;6.93;;;11.90;98.20;;;;;;5013807;28;20045;-70
2023/11/19 12:08:14;;;;;;;9.85;6.80;;;12.00;98.20;;;;;;5013720;28;20041;-71
2023/11/19 12:10:54;;;;;;;14.15;6.43;;;12.00;98.00;;;;;;5013499;28;20044;-71
2023/11/19 12:13:24;;;;;;;10.40;5.85;;;12.10;98.10;;;;;;5013445;28;20100;-71
2023/11/19 12:15:58;;;;;;;7.90;5.13;;;12.10;98.20;;;;;;5013492;28;20116;-71
2023/11/19 12:18:29;;;;;;;7.32;3.45;;;12.20;98.30;;;;;;5013540;28;20022;-71
2023/11/19 12:20:55;;;;;;;7.95;4.35;;;12.20;98.10;;;;;;5013425;28;20025;-71
2023/11/19 12:23:22;;;;;;;8.85;4.28;;;12.20;98.00;;;;;;5011688;28;20018;-70
2023/11/19 12:25:48;;;;;;;9.55;4.68;;;12.20;98.10;;;;;;5010758;28;20481;-71
2023/11/19 12:28:18;;;;;;;10.27;4.85;;;12.20;98.20;;;;;;5009176;28;20029;-70
2023/11/19 12:30:45;;;;;;;7.50;4.75;;;12.10;98.40;;;;;;5012436;28;20125;-70
2023/11/19 12:33:11;;;;;;;6.75;4.45;;;12.00;98.60;;;;;;5013304;28;20030;-71
2023/11/19 12:35:48;;;;;;;6.43;4.15;;;12.00;98.80;;;;;;5013028;28;20065;-70
2023/11/19 12:38:22;;;;;;;10.02;4.32;;;11.90;99.00;;;;;;5012696;28;20040;-71
2023/11/19 12:41:03;;;;;;;10.32;4.22;;;11.90;99.20;;;;;;5012468;28;20026;-70
2023/11/19 12:43:29;;;;;;;9.98;4.00;;;11.90;99.50;;;;;;5013308;28;20022;-69
2023/11/19 12:45:55;;;;;;;7.47;5.22;;;11.90;99.70;;;;;;5012952;28;20121;-70
2023/11/19 12:48:21;;;;;;;10.32;5.43;;;11.90;99.90;;;;;;5013069;28;20026;-70
2023/11/19 12:51:01;;;;;;;9.77;5.20;;;11.90;99.90;;;;;;5013010;28;20080;-71
2023/11/19 12:53:28;;;;;;;12.25;4.93;;;11.90;99.90;;;;;;5012915;28;20424;-71
2023/11/19 12:55:58;;;;;;;8.70;5.15;;;11.90;99.90;;;;;;5013090;28;20063;-70